createdAt,value
2023-05-25T00:00:32.953Z,3.40
2023-05-25T00:01:36.986Z,3.13
2023-05-25T00:02:40.239Z,4.88
2023-05-25T00:03:43.848Z,4.25
2023-05-25T00:04:49.406Z,4.95
2023-05-25T00:05:53.987Z,4.70
2023-05-25T00:06:56.768Z,4.68
2023-05-25T00:07:59.370Z,5.40
2023-05-25T00:09:01.958Z,4.88
2023-05-25T00:10:06.927Z,5.75
2023-05-25T00:11:09.708Z,5.00
2023-05-25T00:12:12.462Z,4.85
2023-05-25T00:13:15.105Z,5.78
2023-05-25T00:14:17.983Z,6.28
2023-05-25T00:15:20.632Z,5.00
2023-05-25T00:16:23.349Z,5.55
2023-05-25T00:17:32.021Z,5.57
2023-05-25T00:18:37.917Z,5.15
2023-05-25T00:19:44.204Z,4.60
2023-05-25T00:20:47.752Z,5.85
2023-05-25T00:21:51.289Z,4.85
2023-05-25T00:22:56.217Z,4.00
2023-05-25T00:23:58.889Z,4.00
2023-05-25T00:25:01.724Z,5.30
2023-05-25T00:26:04.686Z,4.70
2023-05-25T00:27:07.668Z,4.63
2023-05-25T00:28:12.089Z,4.53
2023-05-25T00:29:15.112Z,5.18
2023-05-25T00:30:17.819Z,4.38
2023-05-25T00:31:20.417Z,4.70
2023-05-25T00:32:23.263Z,4.75
2023-05-25T00:33:25.942Z,4.75
2023-05-25T00:34:29.373Z,5.10
2023-05-25T00:35:32.073Z,4.97
2023-05-25T00:36:34.654Z,4.40
2023-05-25T00:37:37.493Z,4.95
2023-05-25T00:38:40.159Z,5.65
2023-05-25T00:39:42.783Z,4.47
2023-05-25T00:40:46.203Z,5.03
2023-05-25T00:41:49.802Z,5.10
2023-05-25T00:42:53.344Z,4.50
2023-05-25T00:43:55.988Z,5.50
2023-05-25T00:44:59.371Z,5.20
2023-05-25T00:46:03.439Z,4.70
2023-05-25T00:47:06.152Z,4.40
2023-05-25T00:48:10.028Z,5.00
2023-05-25T00:49:19.352Z,4.68
2023-05-25T00:50:41.907Z,5.18
2023-05-25T00:51:49.085Z,6.47
2023-05-25T00:52:51.700Z,6.85
2023-05-25T00:53:54.292Z,5.47
2023-05-25T00:55:01.267Z,4.95
2023-05-25T00:56:15.981Z,6.30
2023-05-25T00:57:23.422Z,5.75
2023-05-25T00:58:31.898Z,5.43
2023-05-25T00:59:41.552Z,5.28
2023-05-25T01:00:46.833Z,6.20
2023-05-25T01:01:54.105Z,5.18
2023-05-25T01:02:59.894Z,5.15
2023-05-25T01:04:03.981Z,4.50
2023-05-25T01:05:09.701Z,5.22
2023-05-25T01:06:15.973Z,5.68
2023-05-25T01:07:25.379Z,6.50
2023-05-25T01:08:31.496Z,5.13
2023-05-25T01:09:36.054Z,4.75
2023-05-25T01:10:41.173Z,6.25
2023-05-25T01:11:50.144Z,4.82
2023-05-25T01:12:55.397Z,4.78
2023-05-25T01:13:59.232Z,4.40
2023-05-25T01:15:04.902Z,5.75
2023-05-25T01:16:09.369Z,4.85
2023-05-25T01:17:12.115Z,3.85
2023-05-25T01:18:16.270Z,4.50
2023-05-25T01:19:19.298Z,4.20
2023-05-25T01:20:22.077Z,4.60
2023-05-25T01:21:48.040Z,4.40
2023-05-25T01:23:02.378Z,4.00
2023-05-25T01:24:22.984Z,4.50
2023-05-25T01:25:40.846Z,4.25
2023-05-25T01:26:50.463Z,4.50
2023-05-25T01:28:11.921Z,5.38
2023-05-25T01:29:17.425Z,5.13
2023-05-25T01:30:26.063Z,5.10
2023-05-25T01:31:29.807Z,4.95
2023-05-25T01:32:33.538Z,4.95
2023-05-25T01:33:37.462Z,5.10
2023-05-25T01:34:43.813Z,4.45
2023-05-25T01:35:47.535Z,4.45
2023-05-25T01:36:50.999Z,5.20
2023-05-25T01:37:53.626Z,4.75
2023-05-25T01:38:56.415Z,4.88
2023-05-25T01:39:59.071Z,4.97
2023-05-25T01:41:01.641Z,3.90
2023-05-25T01:42:04.436Z,4.68
2023-05-25T01:43:07.049Z,4.88
2023-05-25T01:44:10.005Z,4.13
2023-05-25T01:45:14.671Z,3.65
2023-05-25T01:46:40.871Z,4.18
2023-05-25T01:48:14.103Z,4.35
2023-05-25T01:49:26.773Z,4.25
2023-05-25T01:50:52.323Z,4.70
2023-05-25T01:52:19.654Z,4.15
2023-05-25T01:53:43.899Z,4.63
2023-05-25T01:55:01.349Z,5.10
2023-05-25T01:56:09.356Z,5.10
2023-05-25T01:57:16.230Z,3.95
2023-05-25T01:58:20.854Z,4.85
2023-05-25T01:59:24.528Z,7.20
2023-05-25T02:00:33.378Z,5.10
2023-05-25T02:01:37.404Z,4.85
2023-05-25T02:02:44.110Z,5.20
2023-05-25T02:03:49.600Z,5.30
2023-05-25T02:04:55.022Z,4.32
2023-05-25T02:05:59.020Z,5.25
2023-05-25T02:07:05.160Z,4.72
2023-05-25T02:08:07.856Z,5.28
2023-05-25T02:09:10.481Z,5.10
2023-05-25T02:10:13.243Z,5.25
2023-05-25T02:11:17.005Z,5.82
2023-05-25T02:12:21.611Z,5.65
2023-05-25T02:13:24.287Z,4.65
2023-05-25T02:14:27.022Z,7.00
2023-05-25T02:15:33.783Z,5.80
2023-05-25T02:16:37.622Z,5.50
2023-05-25T02:17:40.398Z,5.45
2023-05-25T02:18:44.804Z,5.90
2023-05-25T02:19:49.418Z,5.85
2023-05-25T02:20:52.086Z,6.00
2023-05-25T02:21:54.831Z,6.20
2023-05-25T02:22:58.905Z,6.13
2023-05-25T02:24:01.548Z,7.18
2023-05-25T02:25:04.629Z,5.25
2023-05-25T02:26:07.255Z,5.35
2023-05-25T02:27:12.837Z,5.40
2023-05-25T02:28:16.152Z,5.93
2023-05-25T02:29:18.860Z,5.60
2023-05-25T02:30:21.607Z,4.70
2023-05-25T02:31:24.335Z,5.22
2023-05-25T02:32:29.546Z,5.45
2023-05-25T02:33:32.425Z,5.07
2023-05-25T02:34:35.117Z,5.97
2023-05-25T02:35:38.428Z,5.90
2023-05-25T02:36:43.455Z,6.28
2023-05-25T02:37:47.303Z,5.38
2023-05-25T02:38:52.196Z,5.90
2023-05-25T02:39:55.174Z,5.82
2023-05-25T02:40:58.133Z,5.05
2023-05-25T02:42:01.491Z,4.57
2023-05-25T02:43:04.156Z,5.30
2023-05-25T02:44:06.923Z,5.90
2023-05-25T02:45:10.871Z,6.38
2023-05-25T02:46:14.773Z,6.60
2023-05-25T02:47:19.006Z,4.90
2023-05-25T02:48:22.134Z,6.22
2023-05-25T02:49:24.695Z,4.60
2023-05-25T02:50:27.338Z,5.95
2023-05-25T02:51:32.582Z,5.90
2023-05-25T02:52:36.006Z,6.10
2023-05-25T02:53:38.678Z,5.20
2023-05-25T02:54:42.028Z,5.00
2023-05-25T02:55:47.471Z,6.57
2023-05-25T02:56:54.283Z,4.55
2023-05-25T02:57:58.239Z,5.60
2023-05-25T02:59:30.100Z,5.22
2023-05-25T03:00:33.968Z,7.90
2023-05-25T03:01:36.739Z,6.88
2023-05-25T03:02:41.380Z,6.38
2023-05-25T03:03:46.837Z,6.50
2023-05-25T03:04:49.942Z,5.80
2023-05-25T03:05:54.136Z,5.20
2023-05-25T03:06:56.771Z,4.80
2023-05-25T03:07:59.652Z,6.00
2023-05-25T03:09:04.568Z,4.95
2023-05-25T03:10:08.013Z,5.30
2023-05-25T03:11:10.715Z,6.45
2023-05-25T03:12:14.231Z,6.13
2023-05-25T03:13:18.092Z,5.20
2023-05-25T03:14:20.868Z,5.60
2023-05-25T03:15:40.191Z,5.50
2023-05-25T03:16:43.031Z,4.95
2023-05-25T03:17:45.899Z,4.70
2023-05-25T03:18:49.159Z,5.00
2023-05-25T03:19:52.345Z,5.38
2023-05-25T03:20:55.286Z,5.53
2023-05-25T03:21:58.411Z,5.80
2023-05-25T03:23:01.050Z,5.30
2023-05-25T03:24:04.148Z,7.10
2023-05-25T03:25:07.971Z,7.07
2023-05-25T03:26:11.126Z,6.43
2023-05-25T03:27:14.419Z,5.38
2023-05-25T03:28:17.076Z,6.07
2023-05-25T03:29:20.094Z,5.82
2023-05-25T03:30:23.336Z,5.20
2023-05-25T03:31:26.721Z,4.70
2023-05-25T03:32:30.095Z,4.97
2023-05-25T03:33:33.930Z,4.65
2023-05-25T03:34:37.487Z,5.15
2023-05-25T03:35:41.602Z,4.50
2023-05-25T03:36:46.081Z,5.13
2023-05-25T03:37:50.119Z,5.25
2023-05-25T03:38:54.766Z,5.00
2023-05-25T03:39:57.696Z,5.22
2023-05-25T03:41:00.354Z,5.65
2023-05-25T03:42:03.635Z,5.55
2023-05-25T03:43:06.610Z,5.57
2023-05-25T03:44:10.918Z,6.10
2023-05-25T03:45:13.704Z,7.43
2023-05-25T03:46:17.162Z,7.55
2023-05-25T03:47:19.940Z,6.90
2023-05-25T03:48:22.733Z,6.18
2023-05-25T03:49:25.868Z,6.00
2023-05-25T03:50:28.503Z,5.20
2023-05-25T03:51:31.337Z,5.95
2023-05-25T03:52:34.116Z,6.10
2023-05-25T03:53:37.838Z,6.85
2023-05-25T03:54:40.573Z,5.40
2023-05-25T03:55:44.427Z,5.25
2023-05-25T03:56:48.308Z,6.25
2023-05-25T03:57:50.951Z,6.88
2023-05-25T03:58:53.628Z,5.32
2023-05-25T03:59:56.306Z,5.32
2023-05-25T04:01:01.422Z,5.00
2023-05-25T04:02:05.416Z,5.75
2023-05-25T04:03:11.042Z,4.10
2023-05-25T04:04:13.882Z,4.70
2023-05-25T04:05:16.607Z,5.10
2023-05-25T04:06:21.245Z,4.60
2023-05-25T04:07:25.114Z,6.10
2023-05-25T04:08:29.010Z,5.35
2023-05-25T04:09:31.606Z,4.80
2023-05-25T04:10:34.329Z,4.82
2023-05-25T04:11:36.929Z,4.20
2023-05-25T04:12:39.600Z,4.47
2023-05-25T04:13:42.233Z,5.10
2023-05-25T04:14:46.292Z,5.00
2023-05-25T04:15:50.343Z,5.15
2023-05-25T04:16:59.391Z,5.22
2023-05-25T04:18:03.203Z,5.13
2023-05-25T04:19:06.217Z,5.68
2023-05-25T04:20:09.672Z,4.97
2023-05-25T04:21:12.614Z,5.80
2023-05-25T04:22:15.195Z,5.78
2023-05-25T04:23:21.018Z,5.95
2023-05-25T04:24:23.915Z,4.82
2023-05-25T04:25:28.714Z,5.32
2023-05-25T04:26:33.000Z,5.00
2023-05-25T04:27:37.840Z,5.25
2023-05-25T04:28:41.695Z,6.13
2023-05-25T04:29:50.726Z,5.30
2023-05-25T04:31:09.926Z,5.20
2023-05-25T04:32:32.077Z,5.50
2023-05-25T04:33:53.353Z,4.60
2023-05-25T04:35:00.436Z,5.45
2023-05-25T04:36:11.111Z,5.03
2023-05-25T04:37:14.106Z,5.40
2023-05-25T04:38:17.786Z,6.22
2023-05-25T04:39:20.421Z,5.05
2023-05-25T04:40:28.087Z,6.28
2023-05-25T04:41:30.756Z,6.95
2023-05-25T04:42:37.902Z,5.28
2023-05-25T04:44:03.584Z,5.50
2023-05-25T04:45:12.255Z,5.05
2023-05-25T04:46:17.106Z,6.47
2023-05-25T04:47:20.321Z,5.45
2023-05-25T04:48:24.585Z,4.93
2023-05-25T04:49:27.709Z,5.20
2023-05-25T04:50:30.419Z,4.45
2023-05-25T04:51:33.571Z,5.40
2023-05-25T04:52:36.762Z,4.88
2023-05-25T04:53:40.129Z,5.55
2023-05-25T04:54:43.554Z,5.72
2023-05-25T04:55:46.862Z,4.40
2023-05-25T04:56:49.719Z,5.22
2023-05-25T04:57:53.415Z,5.55
2023-05-25T04:58:56.008Z,5.25
2023-05-25T04:59:59.468Z,7.93
2023-05-25T05:01:02.308Z,6.00
2023-05-25T05:02:05.613Z,6.88
2023-05-25T05:03:08.360Z,5.90
2023-05-25T05:04:11.386Z,6.15
2023-05-25T05:05:14.512Z,6.30
2023-05-25T05:06:18.063Z,6.18
2023-05-25T05:07:22.190Z,5.80
2023-05-25T05:08:25.170Z,6.60
2023-05-25T05:09:28.056Z,6.18
2023-05-25T05:10:33.094Z,7.95
2023-05-25T05:11:35.796Z,7.60
2023-05-25T05:12:39.752Z,7.07
2023-05-25T05:13:42.438Z,8.00
2023-05-25T05:14:45.186Z,6.75
2023-05-25T05:15:48.177Z,8.38
2023-05-25T05:16:51.541Z,6.93
2023-05-25T05:17:54.836Z,6.90
2023-05-25T05:18:59.276Z,6.38
2023-05-25T05:20:02.255Z,6.97
2023-05-25T05:21:05.193Z,6.72
2023-05-25T05:22:09.959Z,6.82
2023-05-25T05:23:16.580Z,6.22
2023-05-25T05:24:19.486Z,7.90
2023-05-25T05:25:23.119Z,8.48
2023-05-25T05:26:27.867Z,7.22
2023-05-25T05:27:30.811Z,7.55
2023-05-25T05:28:40.566Z,8.23
2023-05-25T05:29:43.730Z,7.22
2023-05-25T05:30:47.507Z,7.18
2023-05-25T05:31:50.725Z,10.07
2023-05-25T05:32:53.979Z,7.63
2023-05-25T05:34:01.727Z,7.53
2023-05-25T05:35:05.605Z,7.80
2023-05-25T05:36:17.053Z,7.90
2023-05-25T05:37:20.259Z,6.40
2023-05-25T05:38:23.133Z,6.35
2023-05-25T05:39:27.403Z,7.30
2023-05-25T05:40:31.732Z,8.07
2023-05-25T05:41:34.332Z,7.25
2023-05-25T05:42:37.094Z,8.40
2023-05-25T05:43:43.981Z,8.48
2023-05-25T05:44:46.580Z,9.02
2023-05-25T05:45:49.224Z,7.80
2023-05-25T05:47:01.232Z,7.63
2023-05-25T05:48:05.029Z,8.77
2023-05-25T05:49:07.782Z,8.23
2023-05-25T05:50:12.489Z,7.70
2023-05-25T05:51:16.538Z,7.55
2023-05-25T05:52:19.980Z,8.07
2023-05-25T05:53:22.583Z,6.32
2023-05-25T05:54:25.329Z,6.30
2023-05-25T05:55:28.553Z,6.45
2023-05-25T05:56:31.456Z,6.53
2023-05-25T05:57:34.234Z,6.30
2023-05-25T05:58:36.889Z,6.03
2023-05-25T05:59:40.080Z,7.28
2023-05-25T06:00:43.389Z,6.93
2023-05-25T06:01:46.447Z,7.65
2023-05-25T06:02:49.821Z,10.05
2023-05-25T06:03:56.325Z,6.45
2023-05-25T06:04:59.355Z,7.07
2023-05-25T06:06:02.257Z,6.18
2023-05-25T06:07:05.569Z,6.55
2023-05-25T06:08:10.178Z,6.60
2023-05-25T06:09:12.943Z,7.35
2023-05-25T06:10:15.866Z,6.78
2023-05-25T06:11:19.667Z,6.72
2023-05-25T06:12:22.308Z,6.95
2023-05-25T06:13:24.943Z,6.20
2023-05-25T06:14:28.775Z,5.68
2023-05-25T06:15:34.111Z,6.90
2023-05-25T06:16:38.323Z,5.60
2023-05-25T06:17:41.984Z,8.35
2023-05-25T06:18:46.887Z,5.95
2023-05-25T06:19:50.142Z,6.07
2023-05-25T06:20:52.839Z,7.55
2023-05-25T06:21:55.449Z,7.38
2023-05-25T06:22:58.101Z,6.45
2023-05-25T06:24:00.810Z,7.15
2023-05-25T06:25:03.787Z,7.93
2023-05-25T06:26:07.092Z,6.88
2023-05-25T06:27:09.867Z,7.88
2023-05-25T06:28:12.552Z,8.45
2023-05-25T06:29:17.017Z,7.72
2023-05-25T06:30:23.201Z,6.82
2023-05-25T06:31:27.356Z,7.25
2023-05-25T06:32:30.522Z,9.35
2023-05-25T06:33:33.154Z,7.45
2023-05-25T06:34:38.038Z,5.85
2023-05-25T06:35:42.796Z,6.55
2023-05-25T06:36:46.871Z,6.95
2023-05-25T06:37:50.226Z,6.63
2023-05-25T06:38:54.718Z,7.85
2023-05-25T06:39:57.827Z,6.00
2023-05-25T06:41:03.601Z,8.02
2023-05-25T06:42:06.872Z,6.93
2023-05-25T06:43:09.697Z,8.00
2023-05-25T06:44:31.759Z,8.82
2023-05-25T06:45:37.747Z,10.15
2023-05-25T06:46:41.429Z,7.95
2023-05-25T06:47:45.255Z,8.18
2023-05-25T06:48:47.904Z,7.38
2023-05-25T06:49:50.487Z,7.35
2023-05-25T06:50:53.180Z,6.78
2023-05-25T06:51:55.930Z,9.70
2023-05-25T06:53:00.370Z,8.23
2023-05-25T06:54:03.520Z,7.80
2023-05-25T06:55:08.551Z,6.90
2023-05-25T06:56:11.326Z,7.15
2023-05-25T06:57:13.946Z,9.32
2023-05-25T06:58:17.375Z,8.10
2023-05-25T06:59:19.977Z,8.93
2023-05-25T07:00:22.656Z,10.32
2023-05-25T07:01:25.398Z,9.88
2023-05-25T07:02:28.007Z,8.02
2023-05-25T07:03:30.747Z,7.43
2023-05-25T07:04:34.788Z,8.32
2023-05-25T07:05:37.380Z,7.93
2023-05-25T07:06:40.391Z,8.25
2023-05-25T07:07:43.084Z,6.65
2023-05-25T07:08:45.769Z,6.03
2023-05-25T07:09:48.410Z,7.40
2023-05-25T07:10:51.386Z,7.43
2023-05-25T07:11:54.085Z,8.50
2023-05-25T07:12:56.709Z,7.50
2023-05-25T07:13:59.364Z,6.67
2023-05-25T07:15:01.970Z,9.05
2023-05-25T07:16:04.762Z,7.97
2023-05-25T07:17:07.451Z,7.80
2023-05-25T07:18:12.680Z,8.45
2023-05-25T07:19:15.508Z,8.57
2023-05-25T07:20:18.281Z,7.90
2023-05-25T07:21:21.091Z,6.50
2023-05-25T07:22:23.897Z,7.90
2023-05-25T07:23:26.556Z,6.03
2023-05-25T07:24:29.180Z,5.60
2023-05-25T07:25:31.888Z,7.73
2023-05-25T07:26:36.555Z,7.50
2023-05-25T07:27:40.113Z,6.23
2023-05-25T07:28:42.755Z,7.83
2023-05-25T07:29:45.459Z,7.50
2023-05-25T07:30:48.261Z,8.77
2023-05-25T07:31:50.971Z,8.10
2023-05-25T07:32:53.729Z,7.90
2023-05-25T07:33:56.434Z,7.37
2023-05-25T07:34:59.138Z,6.60
2023-05-25T07:36:01.778Z,6.37
2023-05-25T07:37:04.576Z,8.07
2023-05-25T07:38:07.225Z,6.57
2023-05-25T07:39:11.337Z,5.77
2023-05-25T07:40:14.033Z,4.87
2023-05-25T07:41:17.072Z,5.90
2023-05-25T07:42:21.781Z,6.50
2023-05-25T07:43:24.913Z,5.27
2023-05-25T07:44:29.180Z,6.27
2023-05-25T07:45:31.890Z,7.00
2023-05-25T07:46:34.534Z,5.40
2023-05-25T07:47:37.497Z,5.90
2023-05-25T07:48:40.173Z,5.17
2023-05-25T07:49:42.831Z,5.00
2023-05-25T07:50:46.070Z,4.93
2023-05-25T07:51:48.741Z,5.27
2023-05-25T07:52:51.465Z,4.68
2023-05-25T07:53:55.367Z,3.97
2023-05-25T07:54:58.023Z,4.70
2023-05-25T07:56:00.690Z,5.53
2023-05-25T07:57:03.498Z,5.67
2023-05-25T07:58:07.555Z,4.75
2023-05-25T07:59:10.925Z,7.33
2023-05-25T08:00:14.451Z,5.27
2023-05-25T08:01:17.408Z,5.07
2023-05-25T08:02:23.051Z,5.00
2023-05-25T08:03:39.676Z,4.93
2023-05-25T08:04:48.874Z,4.90
2023-05-25T08:05:52.305Z,6.60
2023-05-25T08:06:54.979Z,5.53
2023-05-25T08:07:58.217Z,4.40
2023-05-25T08:09:01.275Z,4.60
2023-05-25T08:10:05.019Z,4.63
2023-05-25T08:11:07.786Z,4.73
2023-05-25T08:12:27.147Z,4.10
2023-05-25T08:13:33.339Z,3.87
2023-05-25T08:14:35.985Z,4.50
2023-05-25T08:15:38.608Z,4.20
2023-05-25T08:16:41.931Z,4.10
2023-05-25T08:17:45.056Z,4.33
2023-05-25T08:18:48.061Z,4.70
2023-05-25T08:19:50.813Z,5.03
2023-05-25T08:20:53.406Z,4.27
2023-05-25T08:21:56.223Z,4.50
2023-05-25T08:22:59.438Z,4.83
2023-05-25T08:24:04.254Z,4.63
2023-05-25T08:25:08.464Z,4.53
2023-05-25T08:26:31.072Z,5.07
2023-05-25T08:27:35.949Z,5.03
2023-05-25T08:28:39.287Z,6.70
2023-05-25T08:29:42.196Z,5.43
2023-05-25T08:30:45.810Z,5.77
2023-05-25T08:31:49.880Z,7.53
2023-05-25T08:32:52.673Z,7.30
2023-05-25T08:33:55.546Z,7.40
2023-05-25T08:34:58.241Z,5.00
2023-05-25T08:36:00.967Z,4.37
2023-05-25T08:37:03.669Z,4.50
2023-05-25T08:38:06.819Z,5.40
2023-05-25T08:39:10.684Z,4.90
2023-05-25T08:40:16.863Z,5.50
2023-05-25T08:41:21.457Z,5.00
2023-05-25T08:42:24.153Z,4.70
2023-05-25T08:43:26.789Z,4.17
2023-05-25T08:44:30.786Z,4.53
2023-05-25T08:45:47.136Z,6.10
2023-05-25T08:46:50.884Z,4.85
2023-05-25T08:47:58.152Z,4.33
2023-05-25T08:49:09.378Z,4.80
2023-05-25T08:50:13.043Z,5.60
2023-05-25T08:51:18.149Z,5.97
2023-05-25T08:52:24.249Z,4.87
2023-05-25T08:53:28.820Z,5.17
2023-05-25T08:54:38.039Z,5.27
2023-05-25T08:55:43.693Z,4.27
2023-05-25T08:57:06.544Z,3.37
2023-05-25T08:58:27.986Z,6.00
2023-05-25T09:00:11.697Z,3.70
2023-05-25T09:01:18.592Z,4.70
2023-05-25T09:02:47.812Z,4.07
2023-05-25T09:03:51.608Z,5.13
2023-05-25T09:04:55.832Z,4.80
2023-05-25T09:05:59.922Z,4.80
2023-05-25T09:07:10.166Z,5.23
2023-05-25T09:08:14.915Z,6.53
2023-05-25T09:09:18.231Z,5.73
2023-05-25T09:10:21.912Z,4.30
2023-05-25T09:11:38.602Z,4.77
2023-05-25T09:12:43.530Z,5.80
2023-05-25T09:13:46.552Z,6.60
2023-05-25T09:14:49.577Z,5.97
2023-05-25T09:15:55.603Z,6.30
2023-05-25T09:16:59.073Z,4.93
2023-05-25T09:18:01.809Z,4.50
2023-05-25T09:19:04.587Z,4.73
2023-05-25T09:20:10.774Z,4.07
2023-05-25T09:21:13.464Z,3.83
2023-05-25T09:22:16.990Z,6.40
2023-05-25T09:23:21.531Z,4.50
2023-05-25T09:24:24.686Z,4.20
2023-05-25T09:25:29.130Z,4.03
2023-05-25T09:26:31.989Z,3.77
2023-05-25T09:27:39.587Z,5.30
2023-05-25T09:28:48.461Z,3.30
2023-05-25T09:29:51.802Z,3.93
2023-05-25T09:30:54.732Z,4.30
2023-05-25T09:31:57.349Z,3.95
2023-05-25T09:33:19.612Z,4.85
2023-05-25T09:34:22.356Z,5.07
2023-05-25T09:35:25.672Z,4.97
2023-05-25T09:36:28.658Z,4.65
2023-05-25T09:37:31.500Z,6.03
2023-05-25T09:38:34.418Z,5.10
2023-05-25T09:39:37.889Z,4.33
2023-05-25T09:40:40.950Z,5.17
2023-05-25T09:41:43.829Z,6.33
2023-05-25T09:42:46.596Z,5.88
2023-05-25T09:43:58.093Z,5.53
2023-05-25T09:45:11.978Z,4.10
2023-05-25T09:46:14.739Z,4.23
2023-05-25T09:47:18.339Z,4.37
2023-05-25T09:48:23.118Z,4.72
2023-05-25T09:49:27.031Z,4.73
2023-05-25T09:50:30.333Z,4.67
2023-05-25T09:51:34.377Z,4.53
2023-05-25T09:52:37.146Z,4.33
2023-05-25T09:53:39.926Z,5.63
2023-05-25T09:54:47.939Z,5.00
2023-05-25T09:55:54.758Z,5.43
2023-05-25T09:56:57.586Z,4.40
2023-05-25T09:58:00.298Z,5.07
2023-05-25T09:59:03.779Z,4.47
2023-05-25T10:00:08.749Z,3.80
2023-05-25T10:01:15.114Z,3.90
2023-05-25T10:02:17.819Z,4.93
2023-05-25T10:03:21.903Z,5.97
2023-05-25T10:04:24.779Z,5.30
2023-05-25T10:05:27.413Z,7.43
2023-05-25T10:06:31.954Z,6.50
2023-05-25T10:07:35.221Z,5.37
2023-05-25T10:08:37.971Z,5.60
2023-05-25T10:09:42.016Z,5.45
2023-05-25T10:10:46.442Z,6.43
2023-05-25T10:11:52.909Z,5.20
2023-05-25T10:12:57.589Z,4.50
2023-05-25T10:14:04.116Z,4.10
2023-05-25T10:15:11.996Z,5.43
2023-05-25T10:16:20.090Z,5.80
2023-05-25T10:17:24.822Z,5.43
2023-05-25T10:18:33.034Z,5.70
2023-05-25T10:19:46.817Z,10.47
2023-05-25T10:20:53.897Z,4.60
2023-05-25T10:22:07.842Z,4.30
2023-05-25T10:23:13.383Z,4.40
2023-05-25T10:24:32.177Z,4.13
2023-05-25T10:25:47.881Z,4.25
2023-05-25T10:26:54.814Z,6.40
2023-05-25T10:28:03.797Z,5.80
2023-05-25T10:29:07.734Z,6.23
2023-05-25T10:30:14.252Z,7.30
2023-05-25T10:31:18.281Z,6.40
2023-05-25T10:32:21.288Z,8.30
2023-05-25T10:33:25.043Z,5.50
2023-05-25T10:34:28.178Z,8.70
2023-05-25T10:35:35.544Z,6.50
2023-05-25T10:36:42.126Z,5.50
2023-05-25T10:37:46.304Z,8.50
2023-05-25T10:38:52.123Z,5.90
2023-05-25T10:39:58.310Z,6.28
2023-05-25T10:41:04.632Z,5.33
2023-05-25T10:42:07.691Z,4.47
2023-05-25T10:43:10.920Z,5.20
2023-05-25T10:44:14.090Z,5.30
2023-05-25T10:45:17.325Z,4.60
2023-05-25T10:46:24.835Z,5.13
2023-05-25T10:47:28.257Z,4.67
2023-05-25T10:48:39.104Z,5.43
2023-05-25T10:49:56.145Z,5.70
2023-05-25T10:50:58.847Z,7.30
2023-05-25T10:52:05.576Z,7.23
2023-05-25T10:53:16.160Z,6.95
2023-05-25T10:54:20.671Z,7.90
2023-05-25T10:55:27.733Z,6.47
2023-05-25T10:56:30.455Z,6.10
2023-05-25T10:57:34.354Z,6.37
2023-05-25T10:58:46.530Z,7.17
2023-05-25T10:59:51.711Z,7.47
2023-05-25T11:01:11.100Z,6.33
2023-05-25T11:02:16.460Z,8.23
2023-05-25T11:03:20.821Z,7.63
2023-05-25T11:04:23.520Z,8.40
2023-05-25T11:05:39.552Z,8.10
2023-05-25T11:06:44.306Z,6.00
2023-05-25T11:07:57.625Z,8.43
2023-05-25T11:09:02.706Z,7.47
2023-05-25T11:10:06.136Z,8.83
2023-05-25T11:11:08.728Z,7.73
2023-05-25T11:12:22.573Z,7.43
2023-05-25T11:13:31.129Z,7.13
2023-05-25T11:14:38.445Z,6.77
2023-05-25T11:15:41.097Z,8.40
2023-05-25T11:16:44.202Z,5.90
2023-05-25T11:18:01.451Z,6.43
2023-05-25T11:19:04.226Z,8.53
2023-05-25T11:20:08.033Z,6.13
2023-05-25T11:21:21.440Z,6.20
2023-05-25T11:22:32.309Z,5.88
2023-05-25T11:23:52.672Z,7.20
2023-05-25T11:24:59.551Z,6.90
2023-05-25T11:26:06.780Z,7.13
2023-05-25T11:27:09.742Z,7.10
2023-05-25T11:28:13.266Z,5.93
2023-05-25T11:29:16.800Z,6.03
2023-05-25T11:30:19.570Z,5.83
2023-05-25T11:31:41.451Z,5.97
2023-05-25T11:32:51.939Z,7.23
2023-05-25T11:34:02.296Z,6.90
2023-05-25T11:35:09.356Z,6.93
2023-05-25T11:36:13.480Z,7.07
2023-05-25T11:37:21.371Z,6.73
2023-05-25T11:38:25.434Z,8.43
2023-05-25T11:39:30.426Z,7.13
2023-05-25T11:40:34.693Z,6.93
2023-05-25T11:41:41.284Z,6.83
2023-05-25T11:42:48.360Z,7.50
2023-05-25T11:43:53.707Z,7.18
2023-05-25T11:44:56.428Z,6.50
2023-05-25T11:46:00.499Z,10.73
2023-05-25T11:47:09.907Z,8.47
2023-05-25T11:48:16.253Z,7.83
2023-05-25T11:49:21.921Z,6.75
2023-05-25T11:50:24.899Z,5.50
2023-05-25T11:51:31.451Z,6.00
2023-05-25T11:52:34.123Z,6.93
2023-05-25T11:53:43.910Z,5.50
2023-05-25T11:54:47.575Z,5.00
2023-05-25T11:55:57.676Z,5.70
2023-05-25T11:57:18.064Z,5.53
2023-05-25T11:58:21.585Z,7.27
2023-05-25T11:59:27.246Z,5.83
2023-05-25T12:00:31.646Z,6.47
2023-05-25T12:01:34.373Z,7.77
2023-05-25T12:02:42.069Z,5.50
2023-05-25T12:03:49.770Z,5.27
2023-05-25T12:04:57.080Z,5.05
2023-05-25T12:05:59.825Z,5.43
2023-05-25T12:07:03.707Z,5.13
2023-05-25T12:08:06.978Z,6.27
2023-05-25T12:09:13.182Z,6.73
2023-05-25T12:10:16.766Z,4.97
2023-05-25T12:11:29.218Z,4.80
2023-05-25T12:12:50.884Z,4.40
2023-05-25T12:13:54.270Z,4.70
2023-05-25T12:14:59.005Z,4.70
2023-05-25T12:16:01.886Z,6.25
2023-05-25T12:17:06.479Z,6.80
2023-05-25T12:18:09.357Z,6.03
2023-05-25T12:19:12.508Z,8.13
2023-05-25T12:20:17.008Z,6.47
2023-05-25T12:21:22.122Z,6.00
2023-05-25T12:22:24.826Z,7.00
2023-05-25T12:23:27.622Z,4.83
2023-05-25T12:24:30.404Z,5.10
2023-05-25T12:25:46.046Z,4.80
2023-05-25T12:26:58.833Z,5.97
2023-05-25T12:28:15.427Z,4.53
2023-05-25T12:29:18.385Z,6.07
2023-05-25T12:30:28.665Z,6.60
2023-05-25T12:31:34.665Z,7.32
2023-05-25T12:33:04.290Z,6.73
2023-05-25T12:34:12.464Z,6.78
2023-05-25T12:35:15.074Z,5.83
2023-05-25T12:36:18.137Z,5.40
2023-05-25T12:37:22.426Z,5.10
2023-05-25T12:38:25.372Z,5.40
2023-05-25T12:39:30.677Z,9.17
2023-05-25T12:40:33.317Z,6.80
2023-05-25T12:41:54.544Z,7.10
2023-05-25T12:42:57.954Z,6.37
2023-05-25T12:44:01.239Z,7.10
2023-05-25T12:45:07.583Z,6.93
2023-05-25T12:46:10.410Z,7.17
2023-05-25T12:47:23.091Z,6.70
2023-05-25T12:48:28.357Z,6.47
2023-05-25T12:49:34.984Z,6.43
2023-05-25T12:50:38.074Z,5.55
2023-05-25T12:51:41.000Z,7.70
2023-05-25T12:52:46.685Z,4.97
2023-05-25T12:53:51.101Z,5.90
2023-05-25T12:54:53.746Z,7.60
2023-05-25T12:56:05.549Z,7.10
2023-05-25T12:57:14.099Z,5.77
2023-05-25T12:58:29.066Z,6.93
2023-05-25T12:59:31.788Z,6.63
2023-05-25T13:00:39.546Z,7.50
2023-05-25T13:01:42.289Z,5.80
2023-05-25T13:02:47.852Z,5.78
2023-05-25T13:03:53.804Z,5.27
2023-05-25T13:04:56.669Z,5.27
2023-05-25T13:06:03.607Z,6.15
2023-05-25T13:07:08.873Z,4.50
2023-05-25T13:08:11.478Z,4.40
2023-05-25T13:09:14.207Z,6.03
2023-05-25T13:10:20.305Z,5.75
2023-05-25T13:11:23.244Z,5.73
2023-05-25T13:12:26.096Z,6.43
2023-05-25T13:13:28.742Z,6.55
2023-05-25T13:14:31.469Z,5.55
2023-05-25T13:15:34.236Z,5.32
2023-05-25T13:16:36.962Z,5.60
2023-05-25T13:17:42.980Z,4.90
2023-05-25T13:18:45.636Z,4.75
2023-05-25T13:19:48.290Z,4.37
2023-05-25T13:20:53.378Z,5.93
2023-05-25T13:21:58.017Z,9.73
2023-05-25T13:23:00.722Z,4.97
2023-05-25T13:24:03.475Z,5.07
2023-05-25T13:25:06.255Z,5.57
2023-05-25T13:26:08.896Z,6.40
2023-05-25T13:27:12.186Z,5.33
2023-05-25T13:28:14.814Z,5.00
2023-05-25T13:29:17.643Z,5.37
2023-05-25T13:30:23.242Z,5.00
2023-05-25T13:31:26.382Z,5.75
2023-05-25T13:32:31.582Z,5.73
2023-05-25T13:33:34.232Z,5.57
2023-05-25T13:34:36.830Z,4.80
2023-05-25T13:35:46.430Z,6.03
2023-05-25T13:36:49.115Z,6.73
2023-05-25T13:37:51.767Z,4.10
2023-05-25T13:38:55.173Z,4.43
2023-05-25T13:39:58.352Z,4.20
2023-05-25T13:41:01.709Z,4.60
2023-05-25T13:42:04.449Z,5.23
2023-05-25T13:43:07.169Z,5.37
2023-05-25T13:44:11.205Z,5.40
2023-05-25T13:45:14.090Z,6.13
2023-05-25T13:46:30.027Z,6.20
2023-05-25T13:47:37.207Z,6.20
2023-05-25T13:48:40.791Z,5.80
2023-05-25T13:49:43.561Z,5.20
2023-05-25T13:50:46.503Z,4.63
2023-05-25T13:51:49.256Z,4.97
2023-05-25T13:52:51.891Z,5.13
2023-05-25T13:53:54.586Z,5.60
2023-05-25T13:54:57.200Z,4.83
2023-05-25T13:56:00.544Z,5.30
2023-05-25T13:57:03.724Z,5.60
2023-05-25T13:58:07.046Z,5.40
2023-05-25T13:59:10.396Z,5.20
2023-05-25T14:00:14.515Z,4.77
2023-05-25T14:01:17.282Z,6.10
2023-05-25T14:02:20.039Z,5.47
2023-05-25T14:03:22.886Z,5.43
2023-05-25T14:04:26.194Z,5.70
2023-05-25T14:05:30.354Z,5.37
2023-05-25T14:06:34.773Z,4.40
2023-05-25T14:07:39.422Z,4.27
2023-05-25T14:08:42.109Z,4.40
2023-05-25T14:09:44.721Z,3.30
2023-05-25T14:10:47.700Z,4.23
2023-05-25T14:11:53.548Z,3.80
2023-05-25T14:12:56.368Z,4.57
2023-05-25T14:13:59.044Z,5.63
2023-05-25T14:15:01.722Z,7.20
2023-05-25T14:16:04.434Z,6.33
2023-05-25T14:17:07.039Z,5.43
2023-05-25T14:18:09.949Z,8.13
2023-05-25T14:19:12.908Z,7.50
2023-05-25T14:20:20.977Z,5.97
2023-05-25T14:21:23.730Z,5.23
2023-05-25T14:22:27.995Z,6.93
2023-05-25T14:23:30.689Z,6.07
2023-05-25T14:24:33.854Z,6.17
2023-05-25T14:25:36.555Z,5.67
2023-05-25T14:26:39.205Z,6.03
2023-05-25T14:27:41.852Z,5.07